sensor_id;sensor_type;location;lat;lon;timestamp;P1;durP1;ratioP1;P2;durP2;ratioP2
24325;SDS011;12448;45.532;5.290;2023-08-30T00:00:20;4.25;;;2.38;;
24325;SDS011;12448;45.532;5.290;2023-08-30T00:02:46;4.72;;;2.45;;
24325;SDS011;12448;45.532;5.290;2023-08-30T00:05:12;4.75;;;2.63;;
24325;SDS011;12448;45.532;5.290;2023-08-30T00:07:38;5.78;;;2.58;;
24325;SDS011;12448;45.532;5.290;2023-08-30T00:10:08;2.20;;;1.80;;
24325;SDS011;12448;45.532;5.290;2023-08-30T00:12:36;4.25;;;2.22;;
24325;SDS011;12448;45.532;5.290;2023-08-30T00:15:02;4.32;;;2.25;;
24325;SDS011;12448;45.532;5.290;2023-08-30T00:17:28;4.85;;;2.30;;
24325;SDS011;12448;45.532;5.290;2023-08-30T00:19:56;4.70;;;2.13;;
24325;SDS011;12448;45.532;5.290;2023-08-30T00:22:33;2.58;;;2.10;;
24325;SDS011;12448;45.532;5.290;2023-08-30T00:24:59;2.67;;;2.17;;
24325;SDS011;12448;45.532;5.290;2023-08-30T00:27:25;3.97;;;2.30;;
24325;SDS011;12448;45.532;5.290;2023-08-30T00:29:51;2.58;;;2.15;;
24325;SDS011;12448;45.532;5.290;2023-08-30T00:32:20;2.85;;;2.30;;
24325;SDS011;12448;45.532;5.290;2023-08-30T00:34:49;4.72;;;2.63;;
24325;SDS011;12448;45.532;5.290;2023-08-30T00:37:32;2.50;;;1.90;;
24325;SDS011;12448;45.532;5.290;2023-08-30T00:39:58;4.82;;;2.10;;
24325;SDS011;12448;45.532;5.290;2023-08-30T00:42:24;3.08;;;2.30;;
24325;SDS011;12448;45.532;5.290;2023-08-30T00:45:00;3.33;;;2.40;;
24325;SDS011;12448;45.532;5.290;2023-08-30T00:47:47;5.30;;;2.42;;
24325;SDS011;12448;45.532;5.290;2023-08-30T00:50:18;3.55;;;2.33;;
24325;SDS011;12448;45.532;5.290;2023-08-30T00:52:44;3.08;;;2.40;;
24325;SDS011;12448;45.532;5.290;2023-08-30T00:55:10;7.97;;;2.67;;
24325;SDS011;12448;45.532;5.290;2023-08-30T00:57:36;5.72;;;2.50;;
24325;SDS011;12448;45.532;5.290;2023-08-30T01:00:02;3.25;;;2.40;;
24325;SDS011;12448;45.532;5.290;2023-08-30T01:02:30;5.00;;;2.38;;
24325;SDS011;12448;45.532;5.290;2023-08-30T01:04:56;2.80;;;2.30;;
24325;SDS011;12448;45.532;5.290;2023-08-30T01:07:25;4.80;;;2.60;;
24325;SDS011;12448;45.532;5.290;2023-08-30T01:10:10;4.30;;;2.85;;
24325;SDS011;12448;45.532;5.290;2023-08-30T01:12:41;2.97;;;2.47;;
24325;SDS011;12448;45.532;5.290;2023-08-30T01:15:25;4.45;;;2.60;;
24325;SDS011;12448;45.532;5.290;2023-08-30T01:17:51;5.10;;;2.67;;
24325;SDS011;12448;45.532;5.290;2023-08-30T01:20:24;3.92;;;2.60;;
24325;SDS011;12448;45.532;5.290;2023-08-30T01:23:08;3.13;;;2.58;;
24325;SDS011;12448;45.532;5.290;2023-08-30T01:26:07;3.35;;;2.58;;
24325;SDS011;12448;45.532;5.290;2023-08-30T01:28:57;2.60;;;2.38;;
24325;SDS011;12448;45.532;5.290;2023-08-30T01:31:37;4.72;;;2.70;;
24325;SDS011;12448;45.532;5.290;2023-08-30T01:34:04;2.85;;;2.53;;
24325;SDS011;12448;45.532;5.290;2023-08-30T01:36:44;4.13;;;2.65;;
24325;SDS011;12448;45.532;5.290;2023-08-30T01:39:10;2.63;;;2.42;;
24325;SDS011;12448;45.532;5.290;2023-08-30T01:45:33;4.95;;;2.67;;
24325;SDS011;12448;45.532;5.290;2023-08-30T01:51:11;5.15;;;2.60;;
24325;SDS011;12448;45.532;5.290;2023-08-30T01:53:37;2.47;;;2.25;;
24325;SDS011;12448;45.532;5.290;2023-08-30T01:56:13;3.45;;;2.40;;
24325;SDS011;12448;45.532;5.290;2023-08-30T01:58:41;4.93;;;2.63;;
24325;SDS011;12448;45.532;5.290;2023-08-30T02:01:07;8.35;;;2.85;;
24325;SDS011;12448;45.532;5.290;2023-08-30T02:03:33;3.28;;;2.80;;
24325;SDS011;12448;45.532;5.290;2023-08-30T02:11:49;3.30;;;3.00;;
24325;SDS011;12448;45.532;5.290;2023-08-30T02:14:18;5.03;;;3.42;;
24325;SDS011;12448;45.532;5.290;2023-08-30T02:16:45;6.75;;;3.50;;
24325;SDS011;12448;45.532;5.290;2023-08-30T02:19:12;5.47;;;3.45;;
24325;SDS011;12448;45.532;5.290;2023-08-30T02:21:42;3.85;;;3.42;;
24325;SDS011;12448;45.532;5.290;2023-08-30T02:24:17;4.07;;;3.60;;
24325;SDS011;12448;45.532;5.290;2023-08-30T02:26:43;5.38;;;3.58;;
24325;SDS011;12448;45.532;5.290;2023-08-30T02:29:09;4.88;;;3.67;;
24325;SDS011;12448;45.532;5.290;2023-08-30T02:31:35;5.03;;;3.75;;
24325;SDS011;12448;45.532;5.290;2023-08-30T02:34:10;6.35;;;4.05;;
24325;SDS011;12448;45.532;5.290;2023-08-30T02:36:36;4.50;;;4.10;;
24325;SDS011;12448;45.532;5.290;2023-08-30T02:39:02;6.70;;;4.00;;
24325;SDS011;12448;45.532;5.290;2023-08-30T02:41:28;6.85;;;4.03;;
24325;SDS011;12448;45.532;5.290;2023-08-30T02:43:54;6.55;;;3.88;;
24325;SDS011;12448;45.532;5.290;2023-08-30T02:46:20;6.45;;;4.03;;
24325;SDS011;12448;45.532;5.290;2023-08-30T02:48:45;4.47;;;3.88;;
24325;SDS011;12448;45.532;5.290;2023-08-30T02:51:11;4.68;;;3.90;;
24325;SDS011;12448;45.532;5.290;2023-08-30T02:53:36;5.95;;;4.07;;
24325;SDS011;12448;45.532;5.290;2023-08-30T02:56:02;5.13;;;3.97;;
24325;SDS011;12448;45.532;5.290;2023-08-30T02:58:28;6.78;;;4.13;;
24325;SDS011;12448;45.532;5.290;2023-08-30T03:00:54;4.25;;;3.78;;
24325;SDS011;12448;45.532;5.290;2023-08-30T03:03:19;4.00;;;3.55;;
24325;SDS011;12448;45.532;5.290;2023-08-30T03:05:45;4.35;;;3.50;;
24325;SDS011;12448;45.532;5.290;2023-08-30T03:08:11;5.90;;;3.80;;
24325;SDS011;12448;45.532;5.290;2023-08-30T03:10:36;5.75;;;3.95;;
24325;SDS011;12448;45.532;5.290;2023-08-30T03:13:02;4.47;;;3.47;;
24325;SDS011;12448;45.532;5.290;2023-08-30T03:15:30;5.25;;;3.65;;
24325;SDS011;12448;45.532;5.290;2023-08-30T03:17:57;7.25;;;3.95;;
24325;SDS011;12448;45.532;5.290;2023-08-30T03:20:22;4.68;;;3.40;;
24325;SDS011;12448;45.532;5.290;2023-08-30T03:22:48;6.40;;;3.67;;
24325;SDS011;12448;45.532;5.290;2023-08-30T03:25:13;6.15;;;4.10;;
24325;SDS011;12448;45.532;5.290;2023-08-30T03:27:39;6.65;;;3.78;;
24325;SDS011;12448;45.532;5.290;2023-08-30T03:30:05;6.13;;;3.53;;
24325;SDS011;12448;45.532;5.290;2023-08-30T03:32:31;5.47;;;3.90;;
24325;SDS011;12448;45.532;5.290;2023-08-30T03:34:57;5.68;;;3.30;;
24325;SDS011;12448;45.532;5.290;2023-08-30T03:37:23;6.55;;;3.40;;
24325;SDS011;12448;45.532;5.290;2023-08-30T03:39:48;7.75;;;3.40;;
24325;SDS011;12448;45.532;5.290;2023-08-30T03:42:14;4.68;;;3.63;;
24325;SDS011;12448;45.532;5.290;2023-08-30T03:44:40;4.32;;;3.83;;
24325;SDS011;12448;45.532;5.290;2023-08-30T03:47:05;8.00;;;3.58;;
24325;SDS011;12448;45.532;5.290;2023-08-30T03:49:31;9.50;;;3.55;;
24325;SDS011;12448;45.532;5.290;2023-08-30T03:51:56;4.75;;;3.60;;
24325;SDS011;12448;45.532;5.290;2023-08-30T03:54:22;6.70;;;3.30;;
24325;SDS011;12448;45.532;5.290;2023-08-30T03:56:48;5.18;;;3.60;;
24325;SDS011;12448;45.532;5.290;2023-08-30T03:59:13;4.95;;;3.53;;
24325;SDS011;12448;45.532;5.290;2023-08-30T04:01:39;4.20;;;3.47;;
24325;SDS011;12448;45.532;5.290;2023-08-30T04:04:05;4.70;;;3.58;;
24325;SDS011;12448;45.532;5.290;2023-08-30T04:06:30;4.22;;;3.58;;
24325;SDS011;12448;45.532;5.290;2023-08-30T04:08:56;4.95;;;3.92;;
24325;SDS011;12448;45.532;5.290;2023-08-30T04:11:22;4.40;;;3.70;;
24325;SDS011;12448;45.532;5.290;2023-08-30T04:13:48;5.93;;;3.60;;
24325;SDS011;12448;45.532;5.290;2023-08-30T04:16:13;6.88;;;3.80;;
24325;SDS011;12448;45.532;5.290;2023-08-30T04:18:39;6.88;;;3.88;;
24325;SDS011;12448;45.532;5.290;2023-08-30T04:21:04;4.82;;;3.33;;
24325;SDS011;12448;45.532;5.290;2023-08-30T04:23:33;4.68;;;3.20;;
24325;SDS011;12448;45.532;5.290;2023-08-30T04:25:59;5.93;;;3.45;;
24325;SDS011;12448;45.532;5.290;2023-08-30T04:28:25;4.72;;;3.17;;
24325;SDS011;12448;45.532;5.290;2023-08-30T04:30:55;3.95;;;3.42;;
24325;SDS011;12448;45.532;5.290;2023-08-30T04:33:21;4.72;;;3.72;;
24325;SDS011;12448;45.532;5.290;2023-08-30T04:35:53;9.90;;;3.70;;
24325;SDS011;12448;45.532;5.290;2023-08-30T04:38:20;5.88;;;4.05;;
24325;SDS011;12448;45.532;5.290;2023-08-30T04:40:46;6.47;;;3.90;;
24325;SDS011;12448;45.532;5.290;2023-08-30T04:43:12;9.18;;;4.18;;
24325;SDS011;12448;45.532;5.290;2023-08-30T04:45:38;6.63;;;4.00;;
24325;SDS011;12448;45.532;5.290;2023-08-30T04:48:04;5.95;;;4.63;;
24325;SDS011;12448;45.532;5.290;2023-08-30T04:50:30;8.05;;;4.43;;
24325;SDS011;12448;45.532;5.290;2023-08-30T04:52:56;6.07;;;4.40;;
24325;SDS011;12448;45.532;5.290;2023-08-30T04:55:25;7.65;;;4.43;;
24325;SDS011;12448;45.532;5.290;2023-08-30T04:57:53;6.50;;;4.30;;
24325;SDS011;12448;45.532;5.290;2023-08-30T05:00:18;6.18;;;4.28;;
24325;SDS011;12448;45.532;5.290;2023-08-30T05:02:44;7.70;;;4.65;;
24325;SDS011;12448;45.532;5.290;2023-08-30T05:05:11;7.10;;;4.82;;
24325;SDS011;12448;45.532;5.290;2023-08-30T05:07:37;4.90;;;4.40;;
24325;SDS011;12448;45.532;5.290;2023-08-30T05:10:03;6.88;;;4.63;;
24325;SDS011;12448;45.532;5.290;2023-08-30T05:12:29;6.07;;;4.90;;
24325;SDS011;12448;45.532;5.290;2023-08-30T05:14:55;6.55;;;4.75;;
24325;SDS011;12448;45.532;5.290;2023-08-30T05:17:21;6.30;;;4.93;;
24325;SDS011;12448;45.532;5.290;2023-08-30T05:19:46;6.55;;;4.95;;
24325;SDS011;12448;45.532;5.290;2023-08-30T05:22:12;7.25;;;5.00;;
24325;SDS011;12448;45.532;5.290;2023-08-30T05:24:37;6.53;;;5.28;;
24325;SDS011;12448;45.532;5.290;2023-08-30T05:27:03;6.60;;;5.15;;
24325;SDS011;12448;45.532;5.290;2023-08-30T05:29:29;8.77;;;5.30;;
24325;SDS011;12448;45.532;5.290;2023-08-30T05:31:54;7.80;;;5.50;;
24325;SDS011;12448;45.532;5.290;2023-08-30T05:34:20;8.63;;;5.90;;
24325;SDS011;12448;45.532;5.290;2023-08-30T05:36:45;6.93;;;5.72;;
24325;SDS011;12448;45.532;5.290;2023-08-30T05:39:11;8.55;;;6.63;;
24325;SDS011;12448;45.532;5.290;2023-08-30T05:41:37;8.70;;;6.80;;
24325;SDS011;12448;45.532;5.290;2023-08-30T05:44:03;9.73;;;6.75;;
24325;SDS011;12448;45.532;5.290;2023-08-30T05:46:29;8.82;;;7.38;;
24325;SDS011;12448;45.532;5.290;2023-08-30T05:48:54;8.80;;;7.68;;
24325;SDS011;12448;45.532;5.290;2023-08-30T05:51:26;10.93;;;8.48;;
24325;SDS011;12448;45.532;5.290;2023-08-30T05:53:52;10.75;;;8.15;;
24325;SDS011;12448;45.532;5.290;2023-08-30T05:56:17;14.43;;;9.18;;
24325;SDS011;12448;45.532;5.290;2023-08-30T05:58:43;14.02;;;9.52;;
24325;SDS011;12448;45.532;5.290;2023-08-30T06:01:09;10.80;;;9.35;;
24325;SDS011;12448;45.532;5.290;2023-08-30T06:03:38;13.80;;;10.55;;
24325;SDS011;12448;45.532;5.290;2023-08-30T06:06:04;12.00;;;9.98;;
24325;SDS011;12448;45.532;5.290;2023-08-30T06:08:33;14.15;;;12.43;;
24325;SDS011;12448;45.532;5.290;2023-08-30T06:10:59;14.85;;;11.95;;
24325;SDS011;12448;45.532;5.290;2023-08-30T06:13:24;14.82;;;11.90;;
24325;SDS011;12448;45.532;5.290;2023-08-30T06:15:59;16.05;;;11.48;;
24325;SDS011;12448;45.532;5.290;2023-08-30T06:18:30;16.88;;;11.70;;
24325;SDS011;12448;45.532;5.290;2023-08-30T06:21:00;16.13;;;12.32;;
24325;SDS011;12448;45.532;5.290;2023-08-30T06:23:26;14.15;;;12.63;;
24325;SDS011;12448;45.532;5.290;2023-08-30T06:25:57;16.33;;;12.48;;
24325;SDS011;12448;45.532;5.290;2023-08-30T06:28:32;16.35;;;12.68;;
24325;SDS011;12448;45.532;5.290;2023-08-30T06:30:57;16.50;;;11.90;;
24325;SDS011;12448;45.532;5.290;2023-08-30T06:33:23;15.82;;;11.90;;
24325;SDS011;12448;45.532;5.290;2023-08-30T06:35:49;14.63;;;11.10;;
24325;SDS011;12448;45.532;5.290;2023-08-30T06:38:19;15.80;;;11.50;;
24325;SDS011;12448;45.532;5.290;2023-08-30T06:40:47;15.13;;;11.15;;
24325;SDS011;12448;45.532;5.290;2023-08-30T06:43:14;16.52;;;11.25;;
24325;SDS011;12448;45.532;5.290;2023-08-30T06:45:40;12.45;;;10.88;;
24325;SDS011;12448;45.532;5.290;2023-08-30T06:48:07;14.63;;;11.35;;
24325;SDS011;12448;45.532;5.290;2023-08-30T06:50:33;13.63;;;10.82;;
24325;SDS011;12448;45.532;5.290;2023-08-30T06:52:58;13.07;;;11.10;;
24325;SDS011;12448;45.532;5.290;2023-08-30T06:55:24;12.02;;;10.38;;
24325;SDS011;12448;45.532;5.290;2023-08-30T06:57:50;13.50;;;10.85;;
24325;SDS011;12448;45.532;5.290;2023-08-30T07:00:22;15.55;;;10.20;;
24325;SDS011;12448;45.532;5.290;2023-08-30T07:02:48;13.63;;;9.75;;
24325;SDS011;12448;45.532;5.290;2023-08-30T07:05:16;13.25;;;9.98;;
24325;SDS011;12448;45.532;5.290;2023-08-30T07:07:50;13.02;;;10.70;;
24325;SDS011;12448;45.532;5.290;2023-08-30T07:10:16;19.60;;;11.02;;
24325;SDS011;12448;45.532;5.290;2023-08-30T07:12:41;14.32;;;10.68;;
24325;SDS011;12448;45.532;5.290;2023-08-30T07:15:07;11.57;;;10.00;;
24325;SDS011;12448;45.532;5.290;2023-08-30T07:17:33;14.23;;;11.57;;
24325;SDS011;12448;45.532;5.290;2023-08-30T07:19:59;13.82;;;11.15;;
24325;SDS011;12448;45.532;5.290;2023-08-30T07:22:26;14.90;;;12.07;;
24325;SDS011;12448;45.532;5.290;2023-08-30T07:24:51;16.75;;;12.18;;
24325;SDS011;12448;45.532;5.290;2023-08-30T07:27:17;13.85;;;12.45;;
24325;SDS011;12448;45.532;5.290;2023-08-30T07:29:46;14.68;;;11.95;;
24325;SDS011;12448;45.532;5.290;2023-08-30T07:32:12;13.68;;;11.20;;
24325;SDS011;12448;45.532;5.290;2023-08-30T07:34:37;15.85;;;12.02;;
24325;SDS011;12448;45.532;5.290;2023-08-30T07:37:03;15.70;;;11.52;;
24325;SDS011;12448;45.532;5.290;2023-08-30T07:39:51;14.43;;;11.40;;
24325;SDS011;12448;45.532;5.290;2023-08-30T07:42:28;13.25;;;10.40;;
24325;SDS011;12448;45.532;5.290;2023-08-30T07:45:09;13.10;;;10.75;;
24325;SDS011;12448;45.532;5.290;2023-08-30T07:47:35;12.02;;;10.55;;
24325;SDS011;12448;45.532;5.290;2023-08-30T07:50:21;10.60;;;9.50;;
24325;SDS011;12448;45.532;5.290;2023-08-30T07:52:47;14.30;;;9.60;;
24325;SDS011;12448;45.532;5.290;2023-08-30T07:55:13;14.80;;;9.73;;
24325;SDS011;12448;45.532;5.290;2023-08-30T07:57:39;11.48;;;8.55;;
24325;SDS011;12448;45.532;5.290;2023-08-30T08:00:08;5.20;;;4.57;;
24325;SDS011;12448;45.532;5.290;2023-08-30T08:02:42;13.65;;;7.38;;
24325;SDS011;12448;45.532;5.290;2023-08-30T08:05:16;10.23;;;7.40;;
24325;SDS011;12448;45.532;5.290;2023-08-30T08:07:42;9.40;;;8.15;;
24325;SDS011;12448;45.532;5.290;2023-08-30T08:10:08;9.35;;;8.20;;
24325;SDS011;12448;45.532;5.290;2023-08-30T08:12:34;9.20;;;7.28;;
24325;SDS011;12448;45.532;5.290;2023-08-30T08:15:00;8.43;;;6.85;;
24325;SDS011;12448;45.532;5.290;2023-08-30T08:17:26;8.70;;;6.82;;
24325;SDS011;12448;45.532;5.290;2023-08-30T08:19:52;10.90;;;7.15;;
24325;SDS011;12448;45.532;5.290;2023-08-30T08:22:18;7.63;;;6.15;;
24325;SDS011;12448;45.532;5.290;2023-08-30T08:24:43;10.32;;;6.07;;
24325;SDS011;12448;45.532;5.290;2023-08-30T08:27:11;8.57;;;6.85;;
24325;SDS011;12448;45.532;5.290;2023-08-30T08:29:40;7.68;;;6.20;;
24325;SDS011;12448;45.532;5.290;2023-08-30T08:32:11;7.45;;;6.43;;
24325;SDS011;12448;45.532;5.290;2023-08-30T08:34:37;9.88;;;6.30;;
24325;SDS011;12448;45.532;5.290;2023-08-30T08:37:06;7.75;;;5.38;;
24325;SDS011;12448;45.532;5.290;2023-08-30T08:39:34;7.10;;;5.97;;
24325;SDS011;12448;45.532;5.290;2023-08-30T08:42:01;10.38;;;5.72;;
24325;SDS011;12448;45.532;5.290;2023-08-30T08:44:28;8.90;;;6.15;;
24325;SDS011;12448;45.532;5.290;2023-08-30T08:46:57;6.90;;;5.43;;
24325;SDS011;12448;45.532;5.290;2023-08-30T08:49:24;11.80;;;5.78;;
24325;SDS011;12448;45.532;5.290;2023-08-30T08:51:54;7.45;;;5.32;;
24325;SDS011;12448;45.532;5.290;2023-08-30T08:54:21;12.43;;;6.10;;
24325;SDS011;12448;45.532;5.290;2023-08-30T08:56:47;10.02;;;5.50;;
24325;SDS011;12448;45.532;5.290;2023-08-30T08:59:18;7.32;;;5.65;;
24325;SDS011;12448;45.532;5.290;2023-08-30T09:01:46;14.25;;;5.82;;
24325;SDS011;12448;45.532;5.290;2023-08-30T09:04:12;9.50;;;6.32;;
24325;SDS011;12448;45.532;5.290;2023-08-30T09:06:38;9.10;;;5.53;;
24325;SDS011;12448;45.532;5.290;2023-08-30T09:09:08;6.63;;;5.20;;
24325;SDS011;12448;45.532;5.290;2023-08-30T09:11:34;7.65;;;5.97;;
24325;SDS011;12448;45.532;5.290;2023-08-30T09:14:00;6.07;;;5.53;;
24325;SDS011;12448;45.532;5.290;2023-08-30T09:16:26;5.75;;;5.15;;
24325;SDS011;12448;45.532;5.290;2023-08-30T09:18:58;8.27;;;5.28;;
24325;SDS011;12448;45.532;5.290;2023-08-30T09:21:32;6.30;;;4.68;;
24325;SDS011;12448;45.532;5.290;2023-08-30T09:23:58;6.50;;;4.70;;
24325;SDS011;12448;45.532;5.290;2023-08-30T09:26:32;6.95;;;4.93;;
24325;SDS011;12448;45.532;5.290;2023-08-30T09:29:05;6.25;;;4.70;;
24325;SDS011;12448;45.532;5.290;2023-08-30T09:31:35;6.95;;;4.70;;
24325;SDS011;12448;45.532;5.290;2023-08-30T09:34:02;5.20;;;4.00;;
24325;SDS011;12448;45.532;5.290;2023-08-30T09:39:05;5.15;;;4.30;;
24325;SDS011;12448;45.532;5.290;2023-08-30T09:41:32;6.97;;;4.65;;
24325;SDS011;12448;45.532;5.290;2023-08-30T09:44:11;6.10;;;4.38;;
24325;SDS011;12448;45.532;5.290;2023-08-30T09:46:45;5.53;;;4.30;;
24325;SDS011;12448;45.532;5.290;2023-08-30T09:49:12;7.13;;;4.35;;
24325;SDS011;12448;45.532;5.290;2023-08-30T09:51:41;4.88;;;4.32;;
24325;SDS011;12448;45.532;5.290;2023-08-30T09:57:06;5.32;;;4.30;;
24325;SDS011;12448;45.532;5.290;2023-08-30T09:59:32;7.50;;;4.70;;
24325;SDS011;12448;45.532;5.290;2023-08-30T10:01:58;5.22;;;4.22;;
24325;SDS011;12448;45.532;5.290;2023-08-30T10:04:51;7.43;;;4.45;;
24325;SDS011;12448;45.532;5.290;2023-08-30T10:07:17;7.63;;;3.90;;
24325;SDS011;12448;45.532;5.290;2023-08-30T10:09:44;6.45;;;4.03;;
24325;SDS011;12448;45.532;5.290;2023-08-30T10:12:11;6.10;;;3.97;;
24325;SDS011;12448;45.532;5.290;2023-08-30T10:14:37;6.22;;;3.58;;
24325;SDS011;12448;45.532;5.290;2023-08-30T10:17:03;6.78;;;4.03;;
24325;SDS011;12448;45.532;5.290;2023-08-30T10:19:33;6.15;;;3.70;;
24325;SDS011;12448;45.532;5.290;2023-08-30T10:22:02;6.13;;;3.53;;
24325;SDS011;12448;45.532;5.290;2023-08-30T10:24:30;6.10;;;3.67;;
24325;SDS011;12448;45.532;5.290;2023-08-30T10:27:01;5.63;;;3.30;;
24325;SDS011;12448;45.532;5.290;2023-08-30T10:29:30;4.75;;;3.83;;
24325;SDS011;12448;45.532;5.290;2023-08-30T10:32:03;3.75;;;3.33;;
24325;SDS011;12448;45.532;5.290;2023-08-30T10:36:59;4.53;;;3.92;;
24325;SDS011;12448;45.532;5.290;2023-08-30T10:39:35;8.00;;;3.70;;
24325;SDS011;12448;45.532;5.290;2023-08-30T10:42:07;5.32;;;3.28;;
24325;SDS011;12448;45.532;5.290;2023-08-30T10:47:35;4.85;;;2.85;;
24325;SDS011;12448;45.532;5.290;2023-08-30T10:50:06;3.95;;;2.95;;
24325;SDS011;12448;45.532;5.290;2023-08-30T10:52:33;6.10;;;3.38;;
24325;SDS011;12448;45.532;5.290;2023-08-30T10:57:36;5.13;;;3.33;;
24325;SDS011;12448;45.532;5.290;2023-08-30T11:00:12;3.40;;;2.85;;
24325;SDS011;12448;45.532;5.290;2023-08-30T11:02:48;3.67;;;3.20;;
24325;SDS011;12448;45.532;5.290;2023-08-30T11:05:15;5.80;;;3.13;;
24325;SDS011;12448;45.532;5.290;2023-08-30T11:07:44;4.50;;;3.25;;
24325;SDS011;12448;45.532;5.290;2023-08-30T11:10:12;4.63;;;3.05;;
24325;SDS011;12448;45.532;5.290;2023-08-30T11:12:41;3.85;;;2.83;;
24325;SDS011;12448;45.532;5.290;2023-08-30T11:15:07;5.03;;;2.67;;
24325;SDS011;12448;45.532;5.290;2023-08-30T11:17:38;3.60;;;2.72;;
24325;SDS011;12448;45.532;5.290;2023-08-30T11:20:05;3.35;;;2.50;;
24325;SDS011;12448;45.532;5.290;2023-08-30T11:22:53;7.93;;;2.80;;
24325;SDS011;12448;45.532;5.290;2023-08-30T11:25:27;4.13;;;2.80;;
24325;SDS011;12448;45.532;5.290;2023-08-30T11:28:01;6.38;;;2.88;;
24325;SDS011;12448;45.532;5.290;2023-08-30T11:30:28;7.10;;;2.95;;
24325;SDS011;12448;45.532;5.290;2023-08-30T11:33:10;3.72;;;2.80;;
24325;SDS011;12448;45.532;5.290;2023-08-30T11:35:45;5.07;;;2.70;;
24325;SDS011;12448;45.532;5.290;2023-08-30T11:38:51;3.67;;;2.63;;
24325;SDS011;12448;45.532;5.290;2023-08-30T11:41:19;2.50;;;2.25;;
24325;SDS011;12448;45.532;5.290;2023-08-30T11:44:12;3.63;;;2.40;;
24325;SDS011;12448;45.532;5.290;2023-08-30T11:46:47;4.30;;;2.45;;
24325;SDS011;12448;45.532;5.290;2023-08-30T11:49:40;5.63;;;2.78;;
24325;SDS011;12448;45.532;5.290;2023-08-30T11:52:09;3.22;;;2.40;;
24325;SDS011;12448;45.532;5.290;2023-08-30T11:54:35;5.65;;;2.80;;
24325;SDS011;12448;45.532;5.290;2023-08-30T11:57:05;4.30;;;2.17;;
24325;SDS011;12448;45.532;5.290;2023-08-30T11:59:30;2.95;;;2.17;;
24325;SDS011;12448;45.532;5.290;2023-08-30T12:02:08;3.28;;;2.30;;
24325;SDS011;12448;45.532;5.290;2023-08-30T12:04:41;6.72;;;2.78;;
24325;SDS011;12448;45.532;5.290;2023-08-30T12:07:32;2.50;;;1.95;;
24325;SDS011;12448;45.532;5.290;2023-08-30T12:10:10;4.20;;;2.00;;
24325;SDS011;12448;45.532;5.290;2023-08-30T12:12:45;3.10;;;2.30;;
24325;SDS011;12448;45.532;5.290;2023-08-30T12:15:11;2.88;;;2.13;;
24325;SDS011;12448;45.532;5.290;2023-08-30T12:17:39;3.70;;;2.28;;
24325;SDS011;12448;45.532;5.290;2023-08-30T12:20:05;8.77;;;2.10;;
24325;SDS011;12448;45.532;5.290;2023-08-30T12:22:39;3.58;;;1.98;;
24325;SDS011;12448;45.532;5.290;2023-08-30T12:25:38;5.15;;;2.20;;
24325;SDS011;12448;45.532;5.290;2023-08-30T12:30:41;2.33;;;1.60;;
24325;SDS011;12448;45.532;5.290;2023-08-30T12:33:15;2.15;;;1.70;;
24325;SDS011;12448;45.532;5.290;2023-08-30T12:35:56;2.42;;;1.80;;
24325;SDS011;12448;45.532;5.290;2023-08-30T12:38:23;4.07;;;1.80;;
24325;SDS011;12448;45.532;5.290;2023-08-30T12:40:56;2.25;;;1.90;;
24325;SDS011;12448;45.532;5.290;2023-08-30T12:43:25;2.90;;;2.00;;
24325;SDS011;12448;45.532;5.290;2023-08-30T12:45:56;2.40;;;1.90;;
24325;SDS011;12448;45.532;5.290;2023-08-30T12:48:22;3.97;;;2.10;;
24325;SDS011;12448;45.532;5.290;2023-08-30T12:50:48;3.55;;;1.90;;
24325;SDS011;12448;45.532;5.290;2023-08-30T12:53:14;2.92;;;1.80;;
24325;SDS011;12448;45.532;5.290;2023-08-30T12:55:43;3.97;;;2.00;;
24325;SDS011;12448;45.532;5.290;2023-08-30T12:58:09;5.72;;;1.67;;
24325;SDS011;12448;45.532;5.290;2023-08-30T13:00:35;2.03;;;1.63;;
24325;SDS011;12448;45.532;5.290;2023-08-30T13:03:01;4.72;;;1.90;;
24325;SDS011;12448;45.532;5.290;2023-08-30T13:05:28;6.28;;;2.00;;
24325;SDS011;12448;45.532;5.290;2023-08-30T13:07:55;2.38;;;1.80;;
24325;SDS011;12448;45.532;5.290;2023-08-30T13:10:21;4.63;;;1.65;;
24325;SDS011;12448;45.532;5.290;2023-08-30T13:12:46;3.38;;;2.10;;
24325;SDS011;12448;45.532;5.290;2023-08-30T13:15:12;2.28;;;1.48;;
24325;SDS011;12448;45.532;5.290;2023-08-30T13:17:38;3.35;;;1.70;;
24325;SDS011;12448;45.532;5.290;2023-08-30T13:20:03;3.13;;;1.60;;
24325;SDS011;12448;45.532;5.290;2023-08-30T13:22:30;3.05;;;2.13;;
24325;SDS011;12448;45.532;5.290;2023-08-30T13:24:55;2.55;;;1.70;;
24325;SDS011;12448;45.532;5.290;2023-08-30T13:27:21;2.25;;;1.75;;
24325;SDS011;12448;45.532;5.290;2023-08-30T13:29:47;3.70;;;1.50;;
24325;SDS011;12448;45.532;5.290;2023-08-30T13:32:13;3.67;;;1.90;;
24325;SDS011;12448;45.532;5.290;2023-08-30T13:34:39;3.17;;;1.77;;
24325;SDS011;12448;45.532;5.290;2023-08-30T13:37:05;6.45;;;1.60;;
24325;SDS011;12448;45.532;5.290;2023-08-30T13:39:34;3.28;;;1.45;;
24325;SDS011;12448;45.532;5.290;2023-08-30T13:42:00;2.67;;;1.55;;
24325;SDS011;12448;45.532;5.290;2023-08-30T13:44:25;2.53;;;1.40;;
24325;SDS011;12448;45.532;5.290;2023-08-30T13:46:57;2.05;;;1.30;;
24325;SDS011;12448;45.532;5.290;2023-08-30T13:49:23;3.92;;;1.60;;
24325;SDS011;12448;45.532;5.290;2023-08-30T13:51:48;2.42;;;1.60;;
24325;SDS011;12448;45.532;5.290;2023-08-30T13:54:14;2.13;;;1.63;;
24325;SDS011;12448;45.532;5.290;2023-08-30T13:59:38;3.22;;;2.05;;
24325;SDS011;12448;45.532;5.290;2023-08-30T14:02:03;3.50;;;1.80;;
24325;SDS011;12448;45.532;5.290;2023-08-30T14:04:30;4.00;;;1.98;;
24325;SDS011;12448;45.532;5.290;2023-08-30T14:06:57;3.30;;;2.00;;
24325;SDS011;12448;45.532;5.290;2023-08-30T14:09:23;3.38;;;1.85;;
24325;SDS011;12448;45.532;5.290;2023-08-30T14:11:49;1.80;;;1.67;;
24325;SDS011;12448;45.532;5.290;2023-08-30T14:14:15;2.60;;;1.67;;
24325;SDS011;12448;45.532;5.290;2023-08-30T14:16:41;4.20;;;2.10;;
24325;SDS011;12448;45.532;5.290;2023-08-30T14:19:09;3.25;;;1.77;;
24325;SDS011;12448;45.532;5.290;2023-08-30T14:21:48;2.45;;;1.70;;
24325;SDS011;12448;45.532;5.290;2023-08-30T14:24:15;2.33;;;1.48;;
24325;SDS011;12448;45.532;5.290;2023-08-30T14:26:41;2.10;;;1.70;;
24325;SDS011;12448;45.532;5.290;2023-08-30T14:29:06;2.28;;;1.85;;
24325;SDS011;12448;45.532;5.290;2023-08-30T14:31:32;3.90;;;1.67;;
24325;SDS011;12448;45.532;5.290;2023-08-30T14:33:58;2.58;;;1.77;;
24325;SDS011;12448;45.532;5.290;2023-08-30T14:36:23;6.28;;;1.80;;
24325;SDS011;12448;45.532;5.290;2023-08-30T14:38:49;2.33;;;1.75;;
24325;SDS011;12448;45.532;5.290;2023-08-30T14:41:15;3.15;;;1.90;;
24325;SDS011;12448;45.532;5.290;2023-08-30T14:43:42;2.55;;;1.55;;
24325;SDS011;12448;45.532;5.290;2023-08-30T14:46:08;6.30;;;1.92;;
24325;SDS011;12448;45.532;5.290;2023-08-30T14:48:34;4.40;;;2.00;;
24325;SDS011;12448;45.532;5.290;2023-08-30T14:51:00;4.25;;;1.67;;
24325;SDS011;12448;45.532;5.290;2023-08-30T14:53:27;4.18;;;1.90;;
24325;SDS011;12448;45.532;5.290;2023-08-30T14:55:53;2.00;;;1.70;;
24325;SDS011;12448;45.532;5.290;2023-08-30T14:58:20;2.58;;;1.77;;
24325;SDS011;12448;45.532;5.290;2023-08-30T15:00:48;2.45;;;1.60;;
24325;SDS011;12448;45.532;5.290;2023-08-30T15:03:17;3.30;;;2.00;;
24325;SDS011;12448;45.532;5.290;2023-08-30T15:05:44;5.25;;;1.98;;
24325;SDS011;12448;45.532;5.290;2023-08-30T15:08:17;4.53;;;1.88;;
24325;SDS011;12448;45.532;5.290;2023-08-30T15:10:43;2.28;;;2.03;;
24325;SDS011;12448;45.532;5.290;2023-08-30T15:13:08;3.38;;;2.00;;
24325;SDS011;12448;45.532;5.290;2023-08-30T15:15:34;3.47;;;1.60;;
24325;SDS011;12448;45.532;5.290;2023-08-30T15:18:00;5.32;;;2.45;;
24325;SDS011;12448;45.532;5.290;2023-08-30T15:20:26;5.22;;;1.98;;
24325;SDS011;12448;45.532;5.290;2023-08-30T15:22:51;2.15;;;1.95;;